createdAt,value
2018-01-19T00:00:34.130Z,96920.53
2018-01-19T00:03:01.870Z,96928.83
2018-01-19T00:05:29.888Z,96921.33
2018-01-19T00:07:57.501Z,96925.75
2018-01-19T00:10:25.131Z,96932.80
2018-01-19T00:12:52.756Z,96920.52
2018-01-19T00:15:20.384Z,96924.43
2018-01-19T00:17:48.092Z,96935.17
2018-01-19T00:20:15.852Z,96930.37
2018-01-19T00:22:43.671Z,96927.17
2018-01-19T00:25:11.286Z,96933.84
2018-01-19T00:27:39.260Z,96948.64
2018-01-19T00:30:07.040Z,96945.59
2018-01-19T00:32:34.664Z,96940.88
2018-01-19T00:35:02.353Z,96940.94
2018-01-19T00:37:29.971Z,96938.86
2018-01-19T00:39:57.607Z,96937.42
2018-01-19T00:42:25.280Z,96937.36
2018-01-19T00:44:53.027Z,96931.63
2018-01-19T00:47:20.818Z,96932.55
2018-01-19T00:49:48.515Z,96941.08
2018-01-19T00:52:16.230Z,96952.74
2018-01-19T00:54:43.836Z,96939.02
2018-01-19T00:57:11.526Z,96932.75
2018-01-19T00:59:39.267Z,96939.02
2018-01-19T01:02:07.069Z,96945.52
2018-01-19T01:04:34.875Z,96955.34
2018-01-19T01:07:02.761Z,96956.68
2018-01-19T01:09:30.376Z,96960.11
2018-01-19T01:11:57.996Z,96960.69
2018-01-19T01:14:25.800Z,96960.52
2018-01-19T01:16:53.606Z,96966.95
2018-01-19T01:19:21.361Z,96970.42
2018-01-19T01:21:49.120Z,96974.66
2018-01-19T01:24:16.777Z,96984.80
2018-01-19T01:26:44.595Z,96984.03
2018-01-19T01:29:12.287Z,96991.43
2018-01-19T01:31:39.875Z,97006.13
2018-01-19T01:34:07.497Z,97003.08
2018-01-19T01:36:35.121Z,97002.45
2018-01-19T01:39:02.879Z,97007.72
2018-01-19T01:41:30.512Z,97008.55
2018-01-19T01:43:58.144Z,97017.97
2018-01-19T01:46:25.941Z,97019.31
2018-01-19T01:49:05.807Z,97009.45
2018-01-19T01:51:33.411Z,97013.74
2018-01-19T01:54:01.236Z,97016.12
2018-01-19T01:56:28.956Z,97019.53
2018-01-19T01:58:56.562Z,97029.95
2018-01-19T02:01:24.353Z,97025.36
2018-01-19T02:03:52.034Z,97029.02
2018-01-19T02:06:19.667Z,97040.58
2018-01-19T02:08:47.363Z,97045.73
2018-01-19T02:11:14.962Z,97049.22
2018-01-19T02:13:42.570Z,97055.28
2018-01-19T02:16:10.582Z,97047.41
2018-01-19T02:18:38.371Z,97053.47
2018-01-19T02:21:05.956Z,97058.00
2018-01-19T02:23:33.631Z,97054.52
2018-01-19T02:26:01.493Z,97050.18
2018-01-19T02:28:29.172Z,97058.39
2018-01-19T02:30:57.186Z,97069.75
2018-01-19T02:33:24.895Z,97056.95
2018-01-19T02:35:52.619Z,97052.08
2018-01-19T02:38:20.222Z,97054.98
2018-01-19T02:40:48.031Z,97053.61
2018-01-19T02:43:16.731Z,97058.42
2018-01-19T02:45:44.746Z,97066.32
2018-01-19T02:48:12.448Z,97061.97
2018-01-19T02:50:40.053Z,97056.38
2018-01-19T02:53:07.671Z,97063.22
2018-01-19T02:55:35.292Z,97071.97
2018-01-19T02:58:02.950Z,97073.11
2018-01-19T03:00:30.567Z,97082.61
2018-01-19T03:02:58.188Z,97081.58
2018-01-19T03:05:25.817Z,97080.66
2018-01-19T03:07:53.436Z,97079.66
2018-01-19T03:10:21.057Z,97079.29
2018-01-19T03:12:48.815Z,97088.58
2018-01-19T03:15:16.579Z,97088.52
2018-01-19T03:17:44.165Z,97093.58
2018-01-19T03:20:12.007Z,97104.39
2018-01-19T03:22:39.680Z,97118.41
2018-01-19T03:25:07.376Z,97117.80
2018-01-19T03:27:35.107Z,97121.03
2018-01-19T03:30:02.803Z,97125.57
2018-01-19T03:32:30.635Z,97116.59
2018-01-19T03:34:58.248Z,97132.88
2018-01-19T03:37:25.985Z,97139.73
2018-01-19T03:39:53.607Z,97136.80
2018-01-19T03:42:21.220Z,97139.73
2018-01-19T03:44:49.136Z,97128.64
2018-01-19T03:47:16.911Z,97127.76
2018-01-19T03:49:44.522Z,97127.24
2018-01-19T03:52:12.210Z,97133.96
2018-01-19T03:54:39.811Z,97140.70
2018-01-19T03:57:07.416Z,97141.36
2018-01-19T03:59:35.256Z,97155.72
2018-01-19T04:02:02.875Z,97162.94
2018-01-19T04:04:30.632Z,97156.37
2018-01-19T04:06:58.377Z,97163.20
2018-01-19T04:09:25.975Z,97158.54
2018-01-19T04:11:53.572Z,97160.39
2018-01-19T04:14:21.185Z,97152.56
2018-01-19T04:16:48.789Z,97154.57
2018-01-19T04:19:16.416Z,97147.45
2018-01-19T04:21:44.195Z,97162.97
2018-01-19T04:24:11.860Z,97168.83
2018-01-19T04:26:39.480Z,97170.59
2018-01-19T04:29:07.267Z,97190.22
2018-01-19T04:31:34.927Z,97190.25
2018-01-19T04:34:02.528Z,97194.57
2018-01-19T04:36:30.127Z,97195.54
2018-01-19T04:38:57.742Z,97189.80
2018-01-19T04:41:25.350Z,97191.17
2018-01-19T04:43:52.995Z,97193.52
2018-01-19T04:46:20.738Z,97199.25
2018-01-19T04:48:48.486Z,97201.64
2018-01-19T04:51:16.087Z,97217.51
2018-01-19T04:53:43.841Z,97213.95
2018-01-19T04:56:11.456Z,97226.23
2018-01-19T04:58:39.125Z,97224.69
2018-01-19T05:01:06.730Z,97228.06
2018-01-19T05:03:34.346Z,97231.97
2018-01-19T05:06:02.178Z,97243.07
2018-01-19T05:08:29.790Z,97248.31
2018-01-19T05:10:57.431Z,97246.72
2018-01-19T05:13:25.060Z,97252.89
2018-01-19T05:15:52.668Z,97256.50
2018-01-19T05:18:20.331Z,97257.48
2018-01-19T05:20:47.941Z,97265.44
2018-01-19T05:23:15.630Z,97274.55
2018-01-19T05:25:43.313Z,97269.21
2018-01-19T05:28:11.010Z,97276.66
2018-01-19T05:30:38.653Z,97277.59
2018-01-19T05:33:06.268Z,97269.05
2018-01-19T05:35:33.870Z,97278.27
2018-01-19T05:38:01.488Z,97276.83
2018-01-19T05:40:29.075Z,97281.08
2018-01-19T05:42:56.681Z,97289.83
2018-01-19T05:45:24.653Z,97289.06
2018-01-19T05:47:52.332Z,97295.34
2018-01-19T05:50:20.001Z,97295.73
2018-01-19T05:52:47.649Z,97297.08
2018-01-19T05:55:15.537Z,97296.39
2018-01-19T05:57:43.267Z,97301.89
2018-01-19T06:00:10.896Z,97311.38
2018-01-19T06:02:38.591Z,97318.03
2018-01-19T06:05:06.407Z,97319.90
2018-01-19T06:07:34.026Z,97329.80
2018-01-19T06:10:01.842Z,97344.50
2018-01-19T06:12:29.551Z,97341.80
2018-01-19T06:14:57.302Z,97341.83
2018-01-19T06:17:25.508Z,97345.97
2018-01-19T06:19:53.122Z,97338.74
2018-01-19T06:22:20.857Z,97348.89
2018-01-19T06:24:48.511Z,97355.44
2018-01-19T06:27:16.122Z,97359.19
2018-01-19T06:29:43.856Z,97362.12
2018-01-19T06:32:11.516Z,97367.06
2018-01-19T06:34:39.291Z,97368.54
2018-01-19T06:37:06.943Z,97365.73
2018-01-19T06:39:34.591Z,97378.53
2018-01-19T06:42:02.303Z,97377.62
2018-01-19T06:44:29.914Z,97384.14
2018-01-19T06:46:57.522Z,97390.97
2018-01-19T06:49:25.137Z,97394.14
2018-01-19T06:51:52.863Z,97403.77
2018-01-19T06:54:20.482Z,97405.77
2018-01-19T06:56:48.173Z,97414.85
2018-01-19T06:59:15.787Z,97411.66
2018-01-19T07:01:43.422Z,97418.59
2018-01-19T07:04:11.128Z,97426.75
2018-01-19T07:06:38.733Z,97427.52
2018-01-19T07:09:06.371Z,97439.28
2018-01-19T07:11:33.965Z,97451.15
2018-01-19T07:14:01.736Z,97463.00
2018-01-19T07:16:29.473Z,97460.23
2018-01-19T07:18:57.127Z,97474.61
2018-01-19T07:21:24.836Z,97471.66
2018-01-19T07:23:52.463Z,97474.09
2018-01-19T07:26:20.206Z,97480.10
2018-01-19T07:28:47.878Z,97479.03
2018-01-19T07:31:15.653Z,97488.50
2018-01-19T07:33:43.311Z,97491.85
2018-01-19T07:36:10.920Z,97495.76
2018-01-19T07:38:38.531Z,97505.79
2018-01-19T07:41:06.307Z,97500.89
2018-01-19T07:43:33.917Z,97500.73
2018-01-19T07:46:01.752Z,97511.05
2018-01-19T07:48:29.609Z,97513.97
2018-01-19T07:50:57.356Z,97521.72
2018-01-19T07:53:24.971Z,97530.67
2018-01-19T07:55:52.593Z,97536.16
2018-01-19T07:58:20.277Z,97540.98
2018-01-19T08:00:47.898Z,97540.84
2018-01-19T08:03:15.546Z,97555.11
2018-01-19T08:05:43.316Z,97550.62
2018-01-19T08:08:11.071Z,97557.42
2018-01-19T08:10:38.774Z,97569.58
2018-01-19T08:13:06.413Z,97579.47
2018-01-19T08:15:34.084Z,97577.21
2018-01-19T08:18:01.688Z,97574.42
2018-01-19T08:20:29.541Z,97577.48
2018-01-19T08:22:57.161Z,97584.03
2018-01-19T08:25:24.782Z,97594.98
2018-01-19T08:27:52.491Z,97591.66
2018-01-19T08:30:20.192Z,97599.39
2018-01-19T08:32:47.912Z,97605.16
2018-01-19T08:35:15.556Z,97611.03
2018-01-19T08:37:43.329Z,97610.38
2018-01-19T08:40:10.971Z,97620.27
2018-01-19T08:42:38.711Z,97624.14
2018-01-19T08:49:42.343Z,97638.84
2018-01-19T08:52:09.972Z,97641.90
2018-01-19T08:54:37.571Z,97638.30
2018-01-19T08:57:05.302Z,97637.38
2018-01-19T08:59:32.916Z,97647.25
2018-01-19T09:02:00.532Z,97645.80
2018-01-19T09:04:28.313Z,97648.05
2018-01-19T09:06:55.922Z,97650.74
2018-01-19T09:09:23.698Z,97653.00
2018-01-19T09:11:51.316Z,97657.06
2018-01-19T09:14:19.111Z,97652.10
2018-01-19T09:16:46.731Z,97651.25
2018-01-19T09:19:14.362Z,97656.08
2018-01-19T09:21:42.088Z,97652.20
2018-01-19T09:24:09.788Z,97656.98
2018-01-19T09:26:37.583Z,97656.25
2018-01-19T09:29:05.193Z,97657.00
2018-01-19T09:31:32.817Z,97660.30
2018-01-19T09:34:00.454Z,97664.72
2018-01-19T09:36:28.323Z,97675.39
2018-01-19T09:38:56.022Z,97674.86
2018-01-19T09:41:23.784Z,97680.30
2018-01-19T09:43:51.412Z,97678.06
2018-01-19T09:46:19.122Z,97681.22
2018-01-19T09:48:46.796Z,97693.67
2018-01-19T09:51:14.433Z,97685.59
2018-01-19T09:53:42.208Z,97688.50
2018-01-19T09:56:09.848Z,97696.26
2018-01-19T09:58:37.483Z,97695.09
2018-01-19T10:01:05.100Z,97693.33
2018-01-19T10:03:32.703Z,97702.82
2018-01-19T10:06:00.363Z,97698.27
2018-01-19T10:08:27.957Z,97698.66
2018-01-19T10:10:55.588Z,97698.45
2018-01-19T10:13:23.306Z,97698.75
2018-01-19T10:15:51.043Z,97698.84
2018-01-19T10:18:18.646Z,97701.08
2018-01-19T10:20:46.257Z,97696.95
2018-01-19T10:23:13.874Z,97694.62
2018-01-19T10:25:41.558Z,97681.41
2018-01-19T10:28:09.181Z,97674.98
2018-01-19T10:30:36.943Z,97675.12
2018-01-19T10:33:04.584Z,97681.08
2018-01-19T10:35:32.218Z,97676.07
2018-01-19T10:37:59.858Z,97682.45
2018-01-19T10:40:27.633Z,97681.52
2018-01-19T10:42:55.369Z,97681.94
2018-01-19T10:45:23.142Z,97676.48
2018-01-19T10:47:50.813Z,97671.03
2018-01-19T10:50:18.436Z,97666.57
2018-01-19T10:52:46.064Z,97670.38
2018-01-19T10:55:13.769Z,97662.48
2018-01-19T10:57:41.408Z,97662.78
2018-01-19T11:00:09.192Z,97665.47
2018-01-19T11:02:36.981Z,97672.49
2018-01-19T11:05:04.604Z,97672.96
2018-01-19T11:07:32.221Z,97662.80
2018-01-19T11:09:59.953Z,97663.63
2018-01-19T11:12:27.577Z,97665.17
2018-01-19T11:14:55.256Z,97670.39
2018-01-19T11:17:22.901Z,97655.27
2018-01-19T11:19:50.557Z,97655.06
2018-01-19T11:22:18.177Z,97654.19
2018-01-19T11:24:45.791Z,97661.13
2018-01-19T11:27:13.452Z,97664.31
2018-01-19T11:29:41.094Z,97661.55
2018-01-19T11:32:08.699Z,97660.50
2018-01-19T11:34:36.321Z,97662.38
2018-01-19T11:37:04.021Z,97660.70
2018-01-19T11:39:31.749Z,97663.55
2018-01-19T11:41:59.434Z,97664.12
2018-01-19T11:44:27.063Z,97661.57
2018-01-19T11:46:54.718Z,97667.14
2018-01-19T11:49:22.326Z,97670.50
2018-01-19T11:51:49.948Z,97666.58
2018-01-19T11:54:17.554Z,97667.86
2018-01-19T11:56:45.147Z,97669.67
2018-01-19T11:59:12.762Z,97665.89
2018-01-19T12:01:40.411Z,97666.99
2018-01-19T12:04:08.019Z,97666.64
2018-01-19T12:06:35.623Z,97660.51
2018-01-19T12:09:03.393Z,97658.67
2018-01-19T12:11:31.023Z,97666.73
2018-01-19T12:13:58.648Z,97662.84
2018-01-19T12:16:26.307Z,97664.22
2018-01-19T12:18:53.907Z,97664.36
2018-01-19T12:21:21.624Z,97669.55
2018-01-19T12:23:49.526Z,97667.86
2018-01-19T12:26:17.139Z,97661.02
2018-01-19T12:28:44.757Z,97654.88
2018-01-19T12:31:12.468Z,97645.41
2018-01-19T12:33:40.109Z,97648.88
2018-01-19T12:36:07.752Z,97650.55
2018-01-19T12:38:35.368Z,97637.28
2018-01-19T12:41:03.023Z,97629.38
2018-01-19T12:43:30.649Z,97632.39
2018-01-19T12:45:58.268Z,97616.45
2018-01-19T12:48:25.893Z,97616.80
2018-01-19T12:50:53.494Z,97609.86
2018-01-19T12:53:21.168Z,97606.31
2018-01-19T12:55:48.812Z,97606.38
2018-01-19T12:58:16.442Z,97606.38
2018-01-19T13:00:44.066Z,97608.08
2018-01-19T13:03:11.746Z,97607.56
2018-01-19T13:05:39.341Z,97608.47
2018-01-19T13:08:06.992Z,97598.31
2018-01-19T13:10:34.846Z,97598.97
2018-01-19T13:13:02.488Z,97597.52
2018-01-19T13:15:30.272Z,97597.06
2018-01-19T13:17:57.997Z,97594.84
2018-01-19T13:20:25.699Z,97597.00
2018-01-19T13:22:53.351Z,97593.52
2018-01-19T13:25:20.957Z,97591.70
2018-01-19T13:27:48.609Z,97587.97
2018-01-19T13:30:16.349Z,97585.69
2018-01-19T13:32:44.039Z,97583.46
2018-01-19T13:35:11.668Z,97588.94
2018-01-19T13:37:39.284Z,97590.26
2018-01-19T13:40:06.906Z,97592.75
2018-01-19T13:42:35.368Z,97588.95
2018-01-19T13:45:03.011Z,97591.70
2018-01-19T13:47:30.644Z,97582.53
2018-01-19T13:49:58.261Z,97584.91
2018-01-19T13:52:25.908Z,97586.05
2018-01-19T13:54:53.573Z,97591.55
2018-01-19T13:57:21.166Z,97588.69
2018-01-19T13:59:48.814Z,97594.55
2018-01-19T14:02:16.452Z,97585.09
2018-01-19T14:04:44.099Z,97586.19
2018-01-19T14:07:11.726Z,97590.13
2018-01-19T14:09:39.413Z,97589.84
2018-01-19T14:12:07.114Z,97589.65
2018-01-19T14:14:34.738Z,97597.27
2018-01-19T14:17:02.358Z,97590.02
2018-01-19T14:19:29.988Z,97592.87
2018-01-19T14:21:57.618Z,97580.42
2018-01-19T14:24:25.239Z,97585.73
2018-01-19T14:26:52.867Z,97591.89
2018-01-19T14:29:20.528Z,97592.73
2018-01-19T14:31:48.127Z,97592.31
2018-01-19T14:34:15.752Z,97594.38
2018-01-19T14:36:43.379Z,97588.05
2018-01-19T14:39:11.010Z,97588.92
2018-01-19T14:41:38.907Z,97587.06
2018-01-19T14:44:06.513Z,97590.77
2018-01-19T14:46:34.152Z,97595.99
2018-01-19T14:49:01.835Z,97595.27
2018-01-19T14:51:29.472Z,97599.36
2018-01-19T14:53:57.122Z,97594.80
2018-01-19T14:56:24.749Z,97591.92
2018-01-19T14:58:52.464Z,97578.30
2018-01-19T15:01:20.138Z,97586.48
2018-01-19T15:03:47.833Z,97590.07
2018-01-19T15:06:15.511Z,97586.42
2018-01-19T15:08:43.113Z,97579.34
2018-01-19T15:11:10.744Z,97578.11
2018-01-19T15:13:41.616Z,97576.87
2018-01-19T15:16:09.293Z,97588.94
2018-01-19T15:18:36.886Z,97581.75
2018-01-19T15:21:04.523Z,97579.27
2018-01-19T15:23:32.144Z,97571.31
2018-01-19T15:25:59.773Z,97570.61
2018-01-19T15:28:27.474Z,97565.95
2018-01-19T15:30:55.099Z,97564.63
2018-01-19T15:33:22.812Z,97559.36
2018-01-19T15:35:50.695Z,97569.37
2018-01-19T15:38:18.440Z,97563.27
2018-01-19T15:40:46.260Z,97571.37
2018-01-19T15:43:14.002Z,97572.41
2018-01-19T15:45:41.683Z,97571.72
2018-01-19T15:48:09.398Z,97576.87
2018-01-19T15:51:20.234Z,97575.27
2018-01-19T15:53:54.063Z,97579.30
2018-01-19T15:59:12.169Z,97570.23
2018-01-19T16:14:11.973Z,97563.17
2018-01-19T16:16:39.857Z,97556.64
2018-01-19T16:19:12.432Z,97558.44
2018-01-19T16:21:40.143Z,97562.23
2018-01-19T16:24:08.042Z,97555.24
2018-01-19T16:26:35.701Z,97560.09
2018-01-19T16:29:03.364Z,97559.32
2018-01-19T16:31:30.923Z,97563.25
2018-01-19T16:33:58.645Z,97560.91
2018-01-19T16:36:26.305Z,97556.84
2018-01-19T16:38:54.087Z,97564.63
2018-01-19T16:41:21.974Z,97567.92
2018-01-19T16:43:49.807Z,97559.09
2018-01-19T16:46:17.431Z,97564.19
2018-01-19T16:48:45.518Z,97556.81
2018-01-19T16:51:13.148Z,97549.42
2018-01-19T16:53:48.053Z,97552.52
2018-01-19T16:56:19.933Z,97551.45
2018-01-19T16:58:49.647Z,97557.70
2018-01-19T17:01:19.498Z,97561.67
2018-01-19T17:07:08.832Z,97559.95
2018-01-19T17:09:36.538Z,97555.41
2018-01-19T17:12:04.455Z,97561.97
2018-01-19T17:14:32.105Z,97561.98
2018-01-19T17:16:59.925Z,97562.10
2018-01-19T17:19:27.638Z,97561.70
2018-01-19T17:21:55.485Z,97563.72
2018-01-19T17:24:23.103Z,97562.78
2018-01-19T17:26:50.752Z,97561.31
2018-01-19T17:29:18.594Z,97558.24
2018-01-19T17:31:46.377Z,97557.16
2018-01-19T17:34:14.114Z,97561.98
2018-01-19T17:36:41.978Z,97558.23
2018-01-19T17:39:09.640Z,97557.69
2018-01-19T17:41:37.280Z,97560.08
2018-01-19T17:44:05.054Z,97558.64
2018-01-19T17:46:32.773Z,97558.22
2018-01-19T17:49:00.525Z,97558.89
2018-01-19T17:51:28.207Z,97561.84
2018-01-19T17:53:56.332Z,97564.23
2018-01-19T18:00:04.635Z,97568.09
2018-01-19T18:02:32.257Z,97564.90
2018-01-19T18:04:59.887Z,97558.36
2018-01-19T18:07:27.696Z,97561.69
2018-01-19T18:09:55.367Z,97567.33
2018-01-19T18:12:23.062Z,97566.91
2018-01-19T18:14:50.703Z,97566.66
2018-01-19T18:17:18.414Z,97563.72
2018-01-19T18:19:46.244Z,97562.38
2018-01-19T18:22:14.008Z,97559.58
2018-01-19T18:24:41.629Z,97550.86
2018-01-19T18:27:09.260Z,97549.80
2018-01-19T18:29:36.944Z,97546.85
2018-01-19T18:32:04.580Z,97549.67
2018-01-19T18:34:32.210Z,97551.81
2018-01-19T18:36:59.843Z,97545.78
2018-01-19T18:39:27.589Z,97549.13
2018-01-19T18:41:55.320Z,97550.05
2018-01-19T18:44:22.976Z,97557.92
2018-01-19T18:46:50.604Z,97553.82
2018-01-19T18:49:18.238Z,97550.19
2018-01-19T18:51:45.968Z,97551.41
2018-01-19T18:54:13.600Z,97560.36
2018-01-19T18:56:41.228Z,97563.30
2018-01-19T18:59:08.856Z,97559.97
2018-01-19T19:01:36.465Z,97555.68
2018-01-19T19:04:04.140Z,97560.08
2018-01-19T19:06:31.894Z,97556.63
2018-01-19T19:08:59.540Z,97557.43
2018-01-19T19:11:27.172Z,97570.11
2018-01-19T19:13:54.784Z,97561.69
2018-01-19T19:16:22.629Z,97561.41
2018-01-19T19:18:50.377Z,97571.56
2018-01-19T19:21:18.375Z,97571.20
2018-01-19T19:30:47.113Z,97580.23
2018-01-19T19:33:15.664Z,97584.11
2018-01-19T19:35:47.635Z,97583.80
2018-01-19T19:41:36.879Z,97590.87
2018-01-19T19:48:05.958Z,97595.59
2018-01-19T19:54:09.644Z,97606.88
2018-01-19T20:07:04.855Z,97617.47
2018-01-19T20:09:49.889Z,97616.80
2018-01-19T20:12:17.523Z,97628.66
2018-01-19T20:14:45.150Z,97629.58
2018-01-19T20:17:12.804Z,97637.38
2018-01-19T20:19:40.468Z,97640.63
2018-01-19T20:22:08.435Z,97639.80
2018-01-19T20:24:36.166Z,97643.13
2018-01-19T20:27:03.880Z,97651.28
2018-01-19T20:29:31.629Z,97654.46
2018-01-19T20:31:59.369Z,97659.52
2018-01-19T20:34:27.224Z,97665.52
2018-01-19T20:36:54.888Z,97666.44
2018-01-19T20:39:22.513Z,97665.47
2018-01-19T20:41:50.240Z,97667.88
2018-01-19T20:44:17.870Z,97675.16
2018-01-19T20:46:45.496Z,97670.75
2018-01-19T20:49:13.298Z,97671.72
2018-01-19T20:51:40.947Z,97673.34
2018-01-19T20:54:08.749Z,97669.31
2018-01-19T20:56:36.464Z,97671.09
2018-01-19T20:59:04.124Z,97684.88
2018-01-19T21:01:31.868Z,97682.58
2018-01-19T21:03:59.599Z,97676.64
2018-01-19T21:06:27.219Z,97687.98
2018-01-19T21:08:54.870Z,97691.63
2018-01-19T21:11:22.964Z,97695.15
2018-01-19T21:13:50.588Z,97692.81
2018-01-19T21:16:18.269Z,97696.43
2018-01-19T21:18:45.928Z,97695.81
2018-01-19T21:21:13.770Z,97692.38
2018-01-19T21:23:41.414Z,97689.07
2018-01-19T21:26:09.341Z,97690.29
2018-01-19T21:28:37.295Z,97695.70
2018-01-19T21:31:07.423Z,97696.92
2018-01-19T21:33:35.395Z,97696.86
2018-01-19T21:45:55.424Z,97706.08
2018-01-19T21:51:44.946Z,97714.33
2018-01-19T22:00:56.394Z,97724.67
2018-01-19T22:03:24.812Z,97726.31
2018-01-19T22:05:52.442Z,97724.20
2018-01-19T22:08:20.070Z,97735.84
2018-01-19T22:10:47.930Z,97733.73
2018-01-19T22:13:15.718Z,97738.77
2018-01-19T22:15:43.372Z,97741.00
2018-01-19T22:18:11.118Z,97745.30
2018-01-19T22:20:38.765Z,97737.66
2018-01-19T22:23:06.423Z,97741.22
2018-01-19T22:25:34.099Z,97740.13
2018-01-19T22:28:01.724Z,97740.09
2018-01-19T22:30:29.470Z,97749.88
2018-01-19T22:32:57.099Z,97747.95
2018-01-19T22:35:24.887Z,97743.84
2018-01-19T22:37:52.564Z,97743.77
2018-01-19T22:40:20.214Z,97748.28
2018-01-19T22:42:48.379Z,97745.23
2018-01-19T22:45:16.061Z,97754.38
2018-01-19T22:47:43.859Z,97751.85
2018-01-19T22:50:12.525Z,97745.73
2018-01-19T22:52:40.369Z,97755.73
2018-01-19T22:55:08.419Z,97755.93
2018-01-19T22:57:39.930Z,97759.14
2018-01-19T23:00:07.791Z,97766.95
2018-01-19T23:02:35.630Z,97767.88
2018-01-19T23:05:03.445Z,97777.57
2018-01-19T23:07:31.229Z,97785.90
2018-01-19T23:09:58.989Z,97784.94
2018-01-19T23:12:26.686Z,97785.23
2018-01-19T23:14:54.389Z,97784.94
2018-01-19T23:17:22.349Z,97792.97
2018-01-19T23:19:50.001Z,97800.81
2018-01-19T23:22:17.648Z,97799.48
2018-01-19T23:24:45.285Z,97804.63
2018-01-19T23:27:13.069Z,97806.73
2018-01-19T23:29:40.693Z,97801.14
2018-01-19T23:32:08.478Z,97804.11
2018-01-19T23:34:36.348Z,97805.22
2018-01-19T23:37:03.978Z,97804.63
2018-01-19T23:39:31.600Z,97810.47
2018-01-19T23:41:59.302Z,97809.14
2018-01-19T23:44:27.033Z,97811.25
2018-01-19T23:46:54.725Z,97816.98
2018-01-19T23:49:22.498Z,97815.42
2018-01-19T23:51:50.144Z,97820.28
2018-01-19T23:54:17.854Z,97814.32
2018-01-19T23:56:45.608Z,97823.42
2018-01-19T23:59:13.242Z,97821.20
